sensor_id;sensor_type;location;lat;lon;timestamp;temperature;humidity
22923;DHT22;11627;51.322;22.816;2022-12-24T00:01:00;3.50;98.20
22923;DHT22;11627;51.322;22.816;2022-12-24T00:10:44;3.50;97.90
22923;DHT22;11627;51.322;22.816;2022-12-24T00:13:11;3.40;98.00
22923;DHT22;11627;51.322;22.816;2022-12-24T00:15:36;3.40;96.90
22923;DHT22;11627;51.322;22.816;2022-12-24T00:22:57;3.40;94.80
22923;DHT22;11627;51.322;22.816;2022-12-24T00:25:22;3.50;97.80
22923;DHT22;11627;51.322;22.816;2022-12-24T00:27:48;3.50;97.90
22923;DHT22;11627;51.322;22.816;2022-12-24T00:30:14;3.60;98.00
22923;DHT22;11627;51.322;22.816;2022-12-24T00:35:07;3.40;98.00
22923;DHT22;11627;51.322;22.816;2022-12-24T00:47:18;3.40;98.50
22923;DHT22;11627;51.322;22.816;2022-12-24T00:49:43;3.40;98.60
22923;DHT22;11627;51.322;22.816;2022-12-24T00:52:10;3.40;98.50
22923;DHT22;11627;51.322;22.816;2022-12-24T00:54:36;3.30;98.10
22923;DHT22;11627;51.322;22.816;2022-12-24T00:57:02;3.50;98.20
22923;DHT22;11627;51.322;22.816;2022-12-24T00:59:29;3.60;95.10
22923;DHT22;11627;51.322;22.816;2022-12-24T01:01:56;3.20;98.10
22923;DHT22;11627;51.322;22.816;2022-12-24T01:09:33;3.70;98.10
22923;DHT22;11627;51.322;22.816;2022-12-24T01:12:00;3.50;94.90
22923;DHT22;11627;51.322;22.816;2022-12-24T01:14:25;3.40;97.90
22923;DHT22;11627;51.322;22.816;2022-12-24T01:24:13;3.50;94.50
22923;DHT22;11627;51.322;22.816;2022-12-24T01:33:59;4.00;98.30
22923;DHT22;11627;51.322;22.816;2022-12-24T01:36:24;3.60;96.50
22923;DHT22;11627;51.322;22.816;2022-12-24T01:41:20;3.60;94.90
22923;DHT22;11627;51.322;22.816;2022-12-24T01:44:27;3.70;94.70
22923;DHT22;11627;51.322;22.816;2022-12-24T01:47:26;3.80;97.90
22923;DHT22;11627;51.322;22.816;2022-12-24T01:49:58;3.70;96.10
22923;DHT22;11627;51.322;22.816;2022-12-24T01:52:30;3.70;94.50
22923;DHT22;11627;51.322;22.816;2022-12-24T01:55:09;3.70;94.30
22923;DHT22;11627;51.322;22.816;2022-12-24T01:57:49;3.70;94.10
22923;DHT22;11627;51.322;22.816;2022-12-24T02:02:45;3.60;94.00
22923;DHT22;11627;51.322;22.816;2022-12-24T02:05:34;3.60;97.30
22923;DHT22;11627;51.322;22.816;2022-12-24T02:08:03;3.50;94.40
22923;DHT22;11627;51.322;22.816;2022-12-24T02:10:29;3.30;97.90
22923;DHT22;11627;51.322;22.816;2022-12-24T02:12:56;3.50;94.80
22923;DHT22;11627;51.322;22.816;2022-12-24T02:15:24;3.60;98.50
22923;DHT22;11627;51.322;22.816;2022-12-24T02:18:16;3.30;95.10
22923;DHT22;11627;51.322;22.816;2022-12-24T02:21:16;3.50;95.20
22923;DHT22;11627;51.322;22.816;2022-12-24T02:32:23;3.70;96.40
22923;DHT22;11627;51.322;22.816;2022-12-24T02:34:54;4.00;98.30
22923;DHT22;11627;51.322;22.816;2022-12-24T02:37:30;3.60;98.10
22923;DHT22;11627;51.322;22.816;2022-12-24T02:40:10;3.40;94.60
22923;DHT22;11627;51.322;22.816;2022-12-24T02:42:49;3.60;98.10
22923;DHT22;11627;51.322;22.816;2022-12-24T02:45:25;3.40;96.00
22923;DHT22;11627;51.322;22.816;2022-12-24T02:47:54;3.30;94.70
22923;DHT22;11627;51.322;22.816;2022-12-24T02:50:21;3.30;98.00
22923;DHT22;11627;51.322;22.816;2022-12-24T02:52:47;3.40;97.40
22923;DHT22;11627;51.322;22.816;2022-12-24T02:55:34;3.20;97.70
22923;DHT22;11627;51.322;22.816;2022-12-24T02:58:40;3.40;98.30
22923;DHT22;11627;51.322;22.816;2022-12-24T03:04:03;3.20;94.90
22923;DHT22;11627;51.322;22.816;2022-12-24T03:06:51;3.30;98.30
22923;DHT22;11627;51.322;22.816;2022-12-24T03:12:15;3.10;95.20
22923;DHT22;11627;51.322;22.816;2022-12-24T03:14:45;3.10;95.30
22923;DHT22;11627;51.322;22.816;2022-12-24T03:17:13;3.20;95.30
22923;DHT22;11627;51.322;22.816;2022-12-24T03:19:41;3.10;95.30
22923;DHT22;11627;51.322;22.816;2022-12-24T03:22:08;3.10;99.00
22923;DHT22;11627;51.322;22.816;2022-12-24T03:24:36;3.10;99.10
22923;DHT22;11627;51.322;22.816;2022-12-24T03:27:04;3.00;99.10
22923;DHT22;11627;51.322;22.816;2022-12-24T03:29:32;3.10;99.10
22923;DHT22;11627;51.322;22.816;2022-12-24T03:32:01;3.40;96.90
22923;DHT22;11627;51.322;22.816;2022-12-24T03:34:29;3.00;99.00
22923;DHT22;11627;51.322;22.816;2022-12-24T03:36:56;3.20;99.00
22923;DHT22;11627;51.322;22.816;2022-12-24T03:39:22;3.20;98.90
22923;DHT22;11627;51.322;22.816;2022-12-24T03:44:14;3.20;98.80
22923;DHT22;11627;51.322;22.816;2022-12-24T03:46:40;2.90;98.70
22923;DHT22;11627;51.322;22.816;2022-12-24T03:49:06;3.10;98.70
22923;DHT22;11627;51.322;22.816;2022-12-24T03:51:32;3.20;98.60
22923;DHT22;11627;51.322;22.816;2022-12-24T03:53:59;3.00;98.80
22923;DHT22;11627;51.322;22.816;2022-12-24T03:56:25;3.20;98.90
22923;DHT22;11627;51.322;22.816;2022-12-24T03:58:52;3.30;96.30
22923;DHT22;11627;51.322;22.816;2022-12-24T04:01:18;3.00;98.90
22923;DHT22;11627;51.322;22.816;2022-12-24T04:06:12;3.20;98.90
22923;DHT22;11627;51.322;22.816;2022-12-24T04:08:39;3.10;98.90
22923;DHT22;11627;51.322;22.816;2022-12-24T04:11:07;3.60;98.80
22923;DHT22;11627;51.322;22.816;2022-12-24T04:13:34;3.10;98.00
22923;DHT22;11627;51.322;22.816;2022-12-24T04:16:07;3.10;98.60
22923;DHT22;11627;51.322;22.816;2022-12-24T04:18:33;3.30;98.60
22923;DHT22;11627;51.322;22.816;2022-12-24T04:21:00;3.10;98.40
22923;DHT22;11627;51.322;22.816;2022-12-24T04:23:26;3.10;98.50
22923;DHT22;11627;51.322;22.816;2022-12-24T04:30:47;3.20;98.80
22923;DHT22;11627;51.322;22.816;2022-12-24T04:35:39;3.10;98.80
22923;DHT22;11627;51.322;22.816;2022-12-24T04:38:05;3.20;98.00
22923;DHT22;11627;51.322;22.816;2022-12-24T04:40:31;3.20;98.80
22923;DHT22;11627;51.322;22.816;2022-12-24T04:42:57;3.40;98.80
22923;DHT22;11627;51.322;22.816;2022-12-24T04:45:24;3.30;98.50
22923;DHT22;11627;51.322;22.816;2022-12-24T04:47:50;3.30;98.60
22923;DHT22;11627;51.322;22.816;2022-12-24T04:50:15;3.20;98.30
22923;DHT22;11627;51.322;22.816;2022-12-24T04:55:08;3.30;98.50
22923;DHT22;11627;51.322;22.816;2022-12-24T04:57:34;3.20;98.70
22923;DHT22;11627;51.322;22.816;2022-12-24T05:00:04;3.10;99.00
22923;DHT22;11627;51.322;22.816;2022-12-24T05:02:30;3.00;98.90
22923;DHT22;11627;51.322;22.816;2022-12-24T05:04:56;3.10;99.10
22923;DHT22;11627;51.322;22.816;2022-12-24T05:07:23;3.30;99.00
22923;DHT22;11627;51.322;22.816;2022-12-24T05:12:15;3.00;99.10
22923;DHT22;11627;51.322;22.816;2022-12-24T05:14:41;2.90;99.10
22923;DHT22;11627;51.322;22.816;2022-12-24T05:17:06;2.90;99.10
22923;DHT22;11627;51.322;22.816;2022-12-24T05:19:33;3.10;99.20
22923;DHT22;11627;51.322;22.816;2022-12-24T05:21:59;3.00;99.10
22923;DHT22;11627;51.322;22.816;2022-12-24T05:24:43;3.30;99.10
22923;DHT22;11627;51.322;22.816;2022-12-24T05:27:28;3.10;98.90
22923;DHT22;11627;51.322;22.816;2022-12-24T05:29:54;3.20;99.00
22923;DHT22;11627;51.322;22.816;2022-12-24T05:32:20;3.30;99.10
22923;DHT22;11627;51.322;22.816;2022-12-24T05:34:47;3.40;96.30
22923;DHT22;11627;51.322;22.816;2022-12-24T05:39:40;3.30;98.70
22923;DHT22;11627;51.322;22.816;2022-12-24T05:42:06;3.30;98.90
22923;DHT22;11627;51.322;22.816;2022-12-24T05:44:33;3.10;98.90
22923;DHT22;11627;51.322;22.816;2022-12-24T05:49:24;2.90;98.60
22923;DHT22;11627;51.322;22.816;2022-12-24T05:51:50;3.10;98.80
22923;DHT22;11627;51.322;22.816;2022-12-24T06:01:36;3.20;98.10
22923;DHT22;11627;51.322;22.816;2022-12-24T06:04:02;3.00;98.80
22923;DHT22;11627;51.322;22.816;2022-12-24T06:08:57;3.10;98.80
22923;DHT22;11627;51.322;22.816;2022-12-24T06:11:25;3.10;98.70
22923;DHT22;11627;51.322;22.816;2022-12-24T06:13:52;3.20;98.80
22923;DHT22;11627;51.322;22.816;2022-12-24T06:16:18;3.00;98.60
22923;DHT22;11627;51.322;22.816;2022-12-24T06:18:44;3.10;96.90
22923;DHT22;11627;51.322;22.816;2022-12-24T06:21:11;3.10;98.90
22923;DHT22;11627;51.322;22.816;2022-12-24T06:23:39;2.90;98.90
22923;DHT22;11627;51.322;22.816;2022-12-24T06:26:06;3.10;95.40
22923;DHT22;11627;51.322;22.816;2022-12-24T06:28:34;2.90;96.20
22923;DHT22;11627;51.322;22.816;2022-12-24T06:31:01;3.10;97.50
22923;DHT22;11627;51.322;22.816;2022-12-24T06:33:30;2.90;98.70
22923;DHT22;11627;51.322;22.816;2022-12-24T06:38:23;2.90;99.20
22923;DHT22;11627;51.322;22.816;2022-12-24T06:45:47;2.90;99.40
22923;DHT22;11627;51.322;22.816;2022-12-24T06:48:13;3.00;98.80
22923;DHT22;11627;51.322;22.816;2022-12-24T06:50:40;2.90;95.50
22923;DHT22;11627;51.322;22.816;2022-12-24T06:53:06;3.10;98.70
22923;DHT22;11627;51.322;22.816;2022-12-24T06:55:32;2.90;98.40
22923;DHT22;11627;51.322;22.816;2022-12-24T06:57:57;2.80;98.40
22923;DHT22;11627;51.322;22.816;2022-12-24T07:00:24;2.90;98.20
22923;DHT22;11627;51.322;22.816;2022-12-24T07:02:50;2.80;97.90
22923;DHT22;11627;51.322;22.816;2022-12-24T07:05:17;2.90;95.10
22923;DHT22;11627;51.322;22.816;2022-12-24T07:07:43;2.90;98.10
22923;DHT22;11627;51.322;22.816;2022-12-24T07:10:14;3.00;98.20
22923;DHT22;11627;51.322;22.816;2022-12-24T07:12:40;2.80;98.00
22923;DHT22;11627;51.322;22.816;2022-12-24T07:15:07;3.00;98.30
22923;DHT22;11627;51.322;22.816;2022-12-24T07:17:33;2.90;98.20
22923;DHT22;11627;51.322;22.816;2022-12-24T07:20:00;2.90;95.20
22923;DHT22;11627;51.322;22.816;2022-12-24T07:22:25;2.70;98.60
22923;DHT22;11627;51.322;22.816;2022-12-24T07:24:52;2.60;98.50
22923;DHT22;11627;51.322;22.816;2022-12-24T07:27:17;2.80;98.50
22923;DHT22;11627;51.322;22.816;2022-12-24T07:29:43;3.00;98.90
22923;DHT22;11627;51.322;22.816;2022-12-24T07:32:09;2.80;99.00
22923;DHT22;11627;51.322;22.816;2022-12-24T07:34:36;2.80;96.90
22923;DHT22;11627;51.322;22.816;2022-12-24T07:37:03;2.90;99.10
22923;DHT22;11627;51.322;22.816;2022-12-24T07:39:28;3.00;97.50
22923;DHT22;11627;51.322;22.816;2022-12-24T07:46:46;2.80;98.80
22923;DHT22;11627;51.322;22.816;2022-12-24T07:51:38;3.10;98.70
22923;DHT22;11627;51.322;22.816;2022-12-24T07:54:04;3.40;95.20
22923;DHT22;11627;51.322;22.816;2022-12-24T07:56:32;2.90;95.10
22923;DHT22;11627;51.322;22.816;2022-12-24T07:59:01;2.90;98.50
22923;DHT22;11627;51.322;22.816;2022-12-24T08:01:35;2.90;98.50
22923;DHT22;11627;51.322;22.816;2022-12-24T08:04:02;3.10;98.50
22923;DHT22;11627;51.322;22.816;2022-12-24T08:06:27;2.90;98.40
22923;DHT22;11627;51.322;22.816;2022-12-24T08:11:19;2.80;98.60
22923;DHT22;11627;51.322;22.816;2022-12-24T08:13:46;3.30;98.60
22923;DHT22;11627;51.322;22.816;2022-12-24T08:16:13;3.00;95.00
22923;DHT22;11627;51.322;22.816;2022-12-24T08:18:40;2.90;98.20
22923;DHT22;11627;51.322;22.816;2022-12-24T08:21:08;3.00;98.30
22923;DHT22;11627;51.322;22.816;2022-12-24T08:23:35;3.40;98.60
22923;DHT22;11627;51.322;22.816;2022-12-24T08:26:05;3.10;98.40
22923;DHT22;11627;51.322;22.816;2022-12-24T08:28:31;3.00;98.50
22923;DHT22;11627;51.322;22.816;2022-12-24T08:30:58;3.10;97.50
22923;DHT22;11627;51.322;22.816;2022-12-24T08:33:25;3.20;98.60
22923;DHT22;11627;51.322;22.816;2022-12-24T08:35:55;3.10;98.50
22923;DHT22;11627;51.322;22.816;2022-12-24T08:38:22;3.10;95.30
22923;DHT22;11627;51.322;22.816;2022-12-24T08:40:48;3.20;95.20
22923;DHT22;11627;51.322;22.816;2022-12-24T08:43:17;3.10;98.30
22923;DHT22;11627;51.322;22.816;2022-12-24T08:45:51;3.20;98.30
22923;DHT22;11627;51.322;22.816;2022-12-24T08:48:17;3.20;98.20
22923;DHT22;11627;51.322;22.816;2022-12-24T08:50:43;3.40;98.10
22923;DHT22;11627;51.322;22.816;2022-12-24T08:53:10;3.50;98.50
22923;DHT22;11627;51.322;22.816;2022-12-24T08:58:03;3.30;98.10
22923;DHT22;11627;51.322;22.816;2022-12-24T09:00:29;3.20;98.20
22923;DHT22;11627;51.322;22.816;2022-12-24T09:02:56;3.20;98.20
22923;DHT22;11627;51.322;22.816;2022-12-24T09:05:22;3.20;98.00
22923;DHT22;11627;51.322;22.816;2022-12-24T09:07:49;3.20;97.90
22923;DHT22;11627;51.322;22.816;2022-12-24T09:10:14;3.40;98.10
22923;DHT22;11627;51.322;22.816;2022-12-24T09:15:07;3.50;97.80
22923;DHT22;11627;51.322;22.816;2022-12-24T09:17:34;3.30;95.20
22923;DHT22;11627;51.322;22.816;2022-12-24T09:22:27;3.30;97.80
22923;DHT22;11627;51.322;22.816;2022-12-24T09:24:53;3.40;95.20
22923;DHT22;11627;51.322;22.816;2022-12-24T09:27:20;3.50;98.00
22923;DHT22;11627;51.322;22.816;2022-12-24T09:29:46;3.40;95.20
22923;DHT22;11627;51.322;22.816;2022-12-24T09:32:12;3.40;98.40
22923;DHT22;11627;51.322;22.816;2022-12-24T09:35:09;3.50;98.20
22923;DHT22;11627;51.322;22.816;2022-12-24T09:37:49;3.70;98.10
22923;DHT22;11627;51.322;22.816;2022-12-24T09:40:34;3.50;97.80
22923;DHT22;11627;51.322;22.816;2022-12-24T09:48:55;3.60;97.80
22923;DHT22;11627;51.322;22.816;2022-12-24T09:51:49;3.70;97.40
22923;DHT22;11627;51.322;22.816;2022-12-24T09:54:29;3.50;97.60
22923;DHT22;11627;51.322;22.816;2022-12-24T09:56:58;3.70;97.90
22923;DHT22;11627;51.322;22.816;2022-12-24T09:59:42;3.50;97.80
22923;DHT22;11627;51.322;22.816;2022-12-24T10:02:12;3.60;95.10
22923;DHT22;11627;51.322;22.816;2022-12-24T10:04:38;3.70;97.30
22923;DHT22;11627;51.322;22.816;2022-12-24T10:15:52;3.30;97.60
22923;DHT22;11627;51.322;22.816;2022-12-24T10:24:28;3.60;97.30
22923;DHT22;11627;51.322;22.816;2022-12-24T10:27:01;3.60;97.50
22923;DHT22;11627;51.322;22.816;2022-12-24T10:29:36;3.30;97.20
22923;DHT22;11627;51.322;22.816;2022-12-24T10:35:19;3.50;97.40
22923;DHT22;11627;51.322;22.816;2022-12-24T10:37:28;3.50;97.40
22923;DHT22;11627;51.322;22.816;2022-12-24T10:40:01;3.80;97.70
22923;DHT22;11627;51.322;22.816;2022-12-24T10:42:37;3.50;97.80
22923;DHT22;11627;51.322;22.816;2022-12-24T10:45:05;3.60;98.00
22923;DHT22;11627;51.322;22.816;2022-12-24T10:47:33;3.70;97.60
22923;DHT22;11627;51.322;22.816;2022-12-24T10:50:14;3.70;97.60
22923;DHT22;11627;51.322;22.816;2022-12-24T10:52:45;3.90;97.60
22923;DHT22;11627;51.322;22.816;2022-12-24T10:57:44;4.00;97.10
22923;DHT22;11627;51.322;22.816;2022-12-24T11:00:21;3.90;94.40
22923;DHT22;11627;51.322;22.816;2022-12-24T11:02:49;3.90;94.20
22923;DHT22;11627;51.322;22.816;2022-12-24T11:05:34;3.90;94.20
22923;DHT22;11627;51.322;22.816;2022-12-24T11:08:05;3.90;94.20
22923;DHT22;11627;51.322;22.816;2022-12-24T11:10:41;3.80;94.30
22923;DHT22;11627;51.322;22.816;2022-12-24T11:15:59;3.90;94.50
22923;DHT22;11627;51.322;22.816;2022-12-24T11:18:27;3.90;94.50
22923;DHT22;11627;51.322;22.816;2022-12-24T11:20:52;5.30;95.10
22923;DHT22;11627;51.322;22.816;2022-12-24T11:23:19;3.90;94.90
22923;DHT22;11627;51.322;22.816;2022-12-24T11:25:48;4.00;94.70
22923;DHT22;11627;51.322;22.816;2022-12-24T11:28:29;4.00;94.80
22923;DHT22;11627;51.322;22.816;2022-12-24T11:31:01;4.00;94.70
22923;DHT22;11627;51.322;22.816;2022-12-24T11:33:28;4.00;94.70
22923;DHT22;11627;51.322;22.816;2022-12-24T11:35:59;4.40;95.00
22923;DHT22;11627;51.322;22.816;2022-12-24T11:38:27;4.00;94.90
22923;DHT22;11627;51.322;22.816;2022-12-24T11:41:03;4.00;94.80
22923;DHT22;11627;51.322;22.816;2022-12-24T11:43:41;4.00;94.70
22923;DHT22;11627;51.322;22.816;2022-12-24T11:48:40;4.00;94.60
22923;DHT22;11627;51.322;22.816;2022-12-24T11:51:16;4.00;94.50
22923;DHT22;11627;51.322;22.816;2022-12-24T11:53:47;5.20;94.80
22923;DHT22;11627;51.322;22.816;2022-12-24T11:59:46;4.00;94.60
22923;DHT22;11627;51.322;22.816;2022-12-24T12:02:20;4.80;94.70
22923;DHT22;11627;51.322;22.816;2022-12-24T12:04:54;4.00;94.50
22923;DHT22;11627;51.322;22.816;2022-12-24T12:07:33;3.90;94.60
22923;DHT22;11627;51.322;22.816;2022-12-24T12:10:13;4.00;94.90
22923;DHT22;11627;51.322;22.816;2022-12-24T12:12:42;3.90;95.10
22923;DHT22;11627;51.322;22.816;2022-12-24T12:15:26;3.90;95.10
22923;DHT22;11627;51.322;22.816;2022-12-24T12:18:15;3.90;95.20
22923;DHT22;11627;51.322;22.816;2022-12-24T12:20:53;4.00;95.30
22923;DHT22;11627;51.322;22.816;2022-12-24T12:23:49;3.90;95.30
22923;DHT22;11627;51.322;22.816;2022-12-24T12:31:46;3.90;95.30
22923;DHT22;11627;51.322;22.816;2022-12-24T12:34:30;4.00;95.30
22923;DHT22;11627;51.322;22.816;2022-12-24T12:37:01;3.70;98.00
22923;DHT22;11627;51.322;22.816;2022-12-24T12:39:30;3.90;95.20
22923;DHT22;11627;51.322;22.816;2022-12-24T12:45:20;3.70;97.90
22923;DHT22;11627;51.322;22.816;2022-12-24T12:51:01;3.90;95.30
22923;DHT22;11627;51.322;22.816;2022-12-24T12:56:31;3.90;95.30
22923;DHT22;11627;51.322;22.816;2022-12-24T12:59:13;3.90;95.20
22923;DHT22;11627;51.322;22.816;2022-12-24T13:21:26;4.10;94.00
22923;DHT22;11627;51.322;22.816;2022-12-24T13:24:21;4.20;96.60
22923;DHT22;11627;51.322;22.816;2022-12-24T13:35:01;4.00;94.00
22923;DHT22;11627;51.322;22.816;2022-12-24T13:45:44;4.00;96.90
22923;DHT22;11627;51.322;22.816;2022-12-24T13:48:15;3.90;96.80
22923;DHT22;11627;51.322;22.816;2022-12-24T13:53:32;3.80;94.40
22923;DHT22;11627;51.322;22.816;2022-12-24T13:58:44;3.90;97.30
22923;DHT22;11627;51.322;22.816;2022-12-24T14:01:32;3.80;97.30
22923;DHT22;11627;51.322;22.816;2022-12-24T14:04:01;4.60;94.90
22923;DHT22;11627;51.322;22.816;2022-12-24T14:06:31;4.20;94.70
22923;DHT22;11627;51.322;22.816;2022-12-24T14:09:14;3.80;94.60
22923;DHT22;11627;51.322;22.816;2022-12-24T14:14:37;3.80;94.90
22923;DHT22;11627;51.322;22.816;2022-12-24T14:17:20;4.50;95.40
22923;DHT22;11627;51.322;22.816;2022-12-24T14:19:58;3.70;95.40
22923;DHT22;11627;51.322;22.816;2022-12-24T14:22:33;5.60;96.00
22923;DHT22;11627;51.322;22.816;2022-12-24T14:25:15;3.70;95.60
22923;DHT22;11627;51.322;22.816;2022-12-24T14:30:28;5.90;96.30
22923;DHT22;11627;51.322;22.816;2022-12-24T14:32:54;3.60;95.70
22923;DHT22;11627;51.322;22.816;2022-12-24T14:35:26;3.60;95.70
22923;DHT22;11627;51.322;22.816;2022-12-24T14:38:02;3.70;95.80
22923;DHT22;11627;51.322;22.816;2022-12-24T14:40:37;3.60;95.80
22923;DHT22;11627;51.322;22.816;2022-12-24T14:46:29;3.70;95.90
22923;DHT22;11627;51.322;22.816;2022-12-24T14:49:10;3.60;95.90
22923;DHT22;11627;51.322;22.816;2022-12-24T14:54:43;3.70;95.90
22923;DHT22;11627;51.322;22.816;2022-12-24T14:59:56;3.60;95.90
22923;DHT22;11627;51.322;22.816;2022-12-24T15:02:45;3.80;95.90
22923;DHT22;11627;51.322;22.816;2022-12-24T15:05:28;3.50;95.90
22923;DHT22;11627;51.322;22.816;2022-12-24T15:08:00;3.50;96.00
22923;DHT22;11627;51.322;22.816;2022-12-24T15:10:38;3.40;99.20
22923;DHT22;11627;51.322;22.816;2022-12-24T15:15:31;3.60;96.00
22923;DHT22;11627;51.322;22.816;2022-12-24T15:18:01;3.50;95.90
22923;DHT22;11627;51.322;22.816;2022-12-24T15:20:29;3.50;95.90
22923;DHT22;11627;51.322;22.816;2022-12-24T15:22:57;3.50;95.90
22923;DHT22;11627;51.322;22.816;2022-12-24T15:25:26;3.50;98.10
22923;DHT22;11627;51.322;22.816;2022-12-24T15:27:52;3.50;95.80
22923;DHT22;11627;51.322;22.816;2022-12-24T15:30:21;4.50;96.00
22923;DHT22;11627;51.322;22.816;2022-12-24T15:32:52;4.90;96.20
22923;DHT22;11627;51.322;22.816;2022-12-24T15:35:31;3.50;95.80
22923;DHT22;11627;51.322;22.816;2022-12-24T15:37:58;3.40;95.90
22923;DHT22;11627;51.322;22.816;2022-12-24T15:40:24;3.50;96.00
22923;DHT22;11627;51.322;22.816;2022-12-24T15:42:52;3.50;96.00
22923;DHT22;11627;51.322;22.816;2022-12-24T15:45:24;3.40;95.90
22923;DHT22;11627;51.322;22.816;2022-12-24T15:47:55;3.40;95.90
22923;DHT22;11627;51.322;22.816;2022-12-24T15:50:36;3.40;98.50
22923;DHT22;11627;51.322;22.816;2022-12-24T15:53:03;3.40;96.00
22923;DHT22;11627;51.322;22.816;2022-12-24T15:55:34;4.00;96.20
22923;DHT22;11627;51.322;22.816;2022-12-24T15:58:00;3.40;96.10
22923;DHT22;11627;51.322;22.816;2022-12-24T16:00:28;3.30;96.10
22923;DHT22;11627;51.322;22.816;2022-12-24T16:03:18;3.30;96.10
22923;DHT22;11627;51.322;22.816;2022-12-24T16:05:45;3.30;96.10
22923;DHT22;11627;51.322;22.816;2022-12-24T16:13:20;3.40;96.20
22923;DHT22;11627;51.322;22.816;2022-12-24T16:15:56;3.30;96.10
22923;DHT22;11627;51.322;22.816;2022-12-24T16:18:37;3.20;96.10
22923;DHT22;11627;51.322;22.816;2022-12-24T16:21:05;3.30;96.20
22923;DHT22;11627;51.322;22.816;2022-12-24T16:23:44;4.40;96.50
22923;DHT22;11627;51.322;22.816;2022-12-24T16:26:12;3.50;96.20
22923;DHT22;11627;51.322;22.816;2022-12-24T16:28:39;3.30;96.10
22923;DHT22;11627;51.322;22.816;2022-12-24T16:31:04;3.60;96.10
22923;DHT22;11627;51.322;22.816;2022-12-24T16:33:30;3.30;96.00
22923;DHT22;11627;51.322;22.816;2022-12-24T16:35:56;5.00;96.40
22923;DHT22;11627;51.322;22.816;2022-12-24T16:38:22;3.30;95.90
22923;DHT22;11627;51.322;22.816;2022-12-24T16:40:48;3.20;95.90
22923;DHT22;11627;51.322;22.816;2022-12-24T16:43:14;3.20;99.40
22923;DHT22;11627;51.322;22.816;2022-12-24T16:46:01;3.20;99.40
22923;DHT22;11627;51.322;22.816;2022-12-24T16:48:29;3.00;98.90
22923;DHT22;11627;51.322;22.816;2022-12-24T16:50:57;3.10;96.10
22923;DHT22;11627;51.322;22.816;2022-12-24T16:53:24;3.20;95.90
22923;DHT22;11627;51.322;22.816;2022-12-24T16:55:51;3.20;98.90
22923;DHT22;11627;51.322;22.816;2022-12-24T16:58:18;3.20;98.50
22923;DHT22;11627;51.322;22.816;2022-12-24T17:00:44;3.10;98.50
22923;DHT22;11627;51.322;22.816;2022-12-24T17:03:10;3.20;95.60
22923;DHT22;11627;51.322;22.816;2022-12-24T17:05:42;3.30;98.80
22923;DHT22;11627;51.322;22.816;2022-12-24T17:08:08;3.30;98.50
22923;DHT22;11627;51.322;22.816;2022-12-24T17:10:34;3.40;98.50
22923;DHT22;11627;51.322;22.816;2022-12-24T17:15:26;3.30;97.90
22923;DHT22;11627;51.322;22.816;2022-12-24T17:17:51;4.60;95.20
22923;DHT22;11627;51.322;22.816;2022-12-24T17:20:18;3.20;98.00
22923;DHT22;11627;51.322;22.816;2022-12-24T17:22:43;3.20;97.80
22923;DHT22;11627;51.322;22.816;2022-12-24T17:25:11;3.40;97.70
22923;DHT22;11627;51.322;22.816;2022-12-24T17:27:37;3.30;97.50
22923;DHT22;11627;51.322;22.816;2022-12-24T17:30:04;3.10;94.50
22923;DHT22;11627;51.322;22.816;2022-12-24T17:32:31;3.30;97.30
22923;DHT22;11627;51.322;22.816;2022-12-24T17:34:57;3.10;97.30
22923;DHT22;11627;51.322;22.816;2022-12-24T17:37:27;3.30;97.20
22923;DHT22;11627;51.322;22.816;2022-12-24T17:39:53;3.20;97.00
22923;DHT22;11627;51.322;22.816;2022-12-24T17:42:18;3.10;96.70
22923;DHT22;11627;51.322;22.816;2022-12-24T17:44:44;3.30;97.00
22923;DHT22;11627;51.322;22.816;2022-12-24T17:47:10;3.20;97.10
22923;DHT22;11627;51.322;22.816;2022-12-24T17:52:02;3.20;96.90
22923;DHT22;11627;51.322;22.816;2022-12-24T17:54:31;3.10;97.10
22923;DHT22;11627;51.322;22.816;2022-12-24T17:56:56;3.40;97.00
22923;DHT22;11627;51.322;22.816;2022-12-24T18:01:49;3.10;96.50
22923;DHT22;11627;51.322;22.816;2022-12-24T18:04:15;3.40;96.60
22923;DHT22;11627;51.322;22.816;2022-12-24T18:06:40;3.10;96.50
22923;DHT22;11627;51.322;22.816;2022-12-24T18:09:06;3.20;96.70
22923;DHT22;11627;51.322;22.816;2022-12-24T18:11:34;3.20;96.80
22923;DHT22;11627;51.322;22.816;2022-12-24T18:14:02;3.10;96.90
22923;DHT22;11627;51.322;22.816;2022-12-24T18:16:34;3.30;93.90
22923;DHT22;11627;51.322;22.816;2022-12-24T18:19:02;3.20;93.70
22923;DHT22;11627;51.322;22.816;2022-12-24T18:21:30;3.10;93.90
22923;DHT22;11627;51.322;22.816;2022-12-24T18:23:57;3.10;93.90
22923;DHT22;11627;51.322;22.816;2022-12-24T18:26:26;3.10;94.40
22923;DHT22;11627;51.322;22.816;2022-12-24T18:28:54;3.10;94.10
22923;DHT22;11627;51.322;22.816;2022-12-24T18:31:20;5.20;94.50
22923;DHT22;11627;51.322;22.816;2022-12-24T18:33:48;3.00;97.20
22923;DHT22;11627;51.322;22.816;2022-12-24T18:36:15;3.30;96.90
22923;DHT22;11627;51.322;22.816;2022-12-24T18:38:40;3.30;95.30
22923;DHT22;11627;51.322;22.816;2022-12-24T18:41:18;3.20;96.70
22923;DHT22;11627;51.322;22.816;2022-12-24T18:43:45;3.10;96.40
22923;DHT22;11627;51.322;22.816;2022-12-24T18:46:14;3.30;96.10
22923;DHT22;11627;51.322;22.816;2022-12-24T18:48:40;3.00;96.50
22923;DHT22;11627;51.322;22.816;2022-12-24T18:51:08;3.00;96.60
22923;DHT22;11627;51.322;22.816;2022-12-24T18:53:35;3.10;93.40
22923;DHT22;11627;51.322;22.816;2022-12-24T18:56:13;3.10;96.90
22923;DHT22;11627;51.322;22.816;2022-12-24T18:58:40;3.00;97.00
22923;DHT22;11627;51.322;22.816;2022-12-24T19:01:14;3.20;93.30
22923;DHT22;11627;51.322;22.816;2022-12-24T19:03:40;3.10;96.70
22923;DHT22;11627;51.322;22.816;2022-12-24T19:06:06;3.00;96.60
22923;DHT22;11627;51.322;22.816;2022-12-24T19:08:32;3.00;96.70
22923;DHT22;11627;51.322;22.816;2022-12-24T19:10:59;3.00;96.70
22923;DHT22;11627;51.322;22.816;2022-12-24T19:13:24;3.00;97.00
22923;DHT22;11627;51.322;22.816;2022-12-24T19:15:51;3.00;97.30
22923;DHT22;11627;51.322;22.816;2022-12-24T19:18:17;3.00;97.40
22923;DHT22;11627;51.322;22.816;2022-12-24T19:23:08;2.90;97.70
22923;DHT22;11627;51.322;22.816;2022-12-24T19:28:01;2.80;94.30
22923;DHT22;11627;51.322;22.816;2022-12-24T19:30:35;2.90;94.30
22923;DHT22;11627;51.322;22.816;2022-12-24T19:42:47;3.00;97.80
22923;DHT22;11627;51.322;22.816;2022-12-24T19:50:07;2.90;94.30
22923;DHT22;11627;51.322;22.816;2022-12-24T19:59:52;2.80;97.60
22923;DHT22;11627;51.322;22.816;2022-12-24T20:02:17;2.70;97.90
22923;DHT22;11627;51.322;22.816;2022-12-24T20:04:45;2.80;97.90
22923;DHT22;11627;51.322;22.816;2022-12-24T20:09:39;3.10;97.30
22923;DHT22;11627;51.322;22.816;2022-12-24T20:12:05;3.20;96.60
22923;DHT22;11627;51.322;22.816;2022-12-24T20:16:56;3.00;96.00
22923;DHT22;11627;51.322;22.816;2022-12-24T20:19:22;2.90;96.40